DRK300 VQPR-VGHS
Flight info
| Callsign | DRK300 |
|---|---|
| Flight time | 0h 51m |
| Altitude | 31000 |
| Route | PR706 DCT PR710 DCT PR712 DCT PR714 DCT PR746 DCT PR848 DCT PR777 DCT PR780 DCT PR782 DCT BOGOP R598 SDP W3 BELKU BELKU1E |
| Aircraft | A319/M-SDE3FGHIRWY/LB1 |
Departure
| Time | 2026-04-26 11:47 |
|---|---|
| Airport | Paro International Airport (VQPR) |
Arrival
| Time | 2026-04-26 12:38 |
|---|---|
| Airport | Hazrat Shahjalal International Airport (VGHS) |
| Time | Latitude | Longitude | Altitude | Speed | Heading |
|---|---|---|---|---|---|
| 2026-04-26 11:16 | 27.40633 | 89.42108 | 7329 ft | 0 kts | 238° |
| 2026-04-26 11:39 | 27.40643 | 89.42131 | 7329 ft | 4 kts | 257° |
| 2026-04-26 11:39 | 27.40643 | 89.42159 | 7331 ft | 4 kts | 301° |
| 2026-04-26 11:40 | 27.40633 | 89.42172 | 7331 ft | 1 kts | 327° |
| 2026-04-26 11:40 | 27.40631 | 89.42173 | 7331 ft | 1 kts | 327° |
| 2026-04-26 11:43 | 27.40639 | 89.42167 | 7331 ft | 2 kts | 327° |
| 2026-04-26 11:43 | 27.40656 | 89.42155 | 7331 ft | 4 kts | 327° |
| 2026-04-26 11:43 | 27.40682 | 89.42136 | 7331 ft | 5 kts | 326° |
| 2026-04-26 11:43 | 27.40718 | 89.42111 | 7331 ft | 7 kts | 330° |
| 2026-04-26 11:44 | 27.40765 | 89.42080 | 7331 ft | 9 kts | 329° |
| 2026-04-26 11:44 | 27.40819 | 89.42075 | 7334 ft | 6 kts | 32° |
| 2026-04-26 11:44 | 27.40829 | 89.42087 | 7336 ft | 0 kts | 51° |
| 2026-04-26 11:44 | 27.40838 | 89.42100 | 7338 ft | 5 kts | 51° |
| 2026-04-26 11:45 | 27.40903 | 89.42097 | 7341 ft | 17 kts | 336° |
| 2026-04-26 11:45 | 27.41012 | 89.42046 | 7343 ft | 17 kts | 329° |
| 2026-04-26 11:45 | 27.41106 | 89.41975 | 7343 ft | 16 kts | 329° |
| 2026-04-26 11:45 | 27.41169 | 89.41902 | 7343 ft | 10 kts | 311° |
| 2026-04-26 11:46 | 27.41206 | 89.41900 | 7345 ft | 5 kts | 43° |
| 2026-04-26 11:46 | 27.41197 | 89.41921 | 7344 ft | 2 kts | 154° |
| 2026-04-26 11:46 | 27.41194 | 89.41923 | 7344 ft | 0 kts | 152° |
| 2026-04-26 11:46 | 27.41100 | 89.41980 | 7343 ft | 53 kts | 151° |
| 2026-04-26 11:47 | 27.40523 | 89.42346 | 7334 ft | 134 kts | 150° |
| 2026-04-26 11:47 | 27.39547 | 89.42961 | 7637 ft | 170 kts | 151° |
| 2026-04-26 11:47 | 27.38533 | 89.43631 | 8524 ft | 169 kts | 149° |
| 2026-04-26 11:47 | 27.37508 | 89.44327 | 9352 ft | 175 kts | 150° |
| 2026-04-26 11:48 | 27.36374 | 89.44937 | 10034 ft | 195 kts | 155° |
| 2026-04-26 11:48 | 27.35244 | 89.45957 | 10550 ft | 222 kts | 129° |
| 2026-04-26 11:48 | 27.34338 | 89.47422 | 11181 ft | 235 kts | 123° |
| 2026-04-26 11:48 | 27.33451 | 89.48996 | 12173 ft | 242 kts | 122° |
| 2026-04-26 11:49 | 27.32332 | 89.50424 | 13150 ft | 247 kts | 143° |
| 2026-04-26 11:49 | 27.30929 | 89.51568 | 14152 ft | 251 kts | 146° |
| 2026-04-26 11:49 | 27.29482 | 89.52694 | 14884 ft | 255 kts | 152° |
| 2026-04-26 11:49 | 27.27788 | 89.53242 | 15556 ft | 257 kts | 182° |
| 2026-04-26 11:50 | 27.26036 | 89.52881 | 16225 ft | 258 kts | 198° |
| 2026-04-26 11:50 | 27.24288 | 89.52384 | 16954 ft | 261 kts | 194° |
| 2026-04-26 11:50 | 27.22495 | 89.51969 | 17659 ft | 264 kts | 192° |
| 2026-04-26 11:50 | 27.20654 | 89.51762 | 18349 ft | 269 kts | 182° |
| 2026-04-26 11:51 | 27.18773 | 89.51861 | 18913 ft | 273 kts | 175° |
| 2026-04-26 11:51 | 27.16868 | 89.52109 | 19482 ft | 276 kts | 176° |
| 2026-04-26 11:51 | 27.14943 | 89.52342 | 20022 ft | 280 kts | 177° |
| 2026-04-26 11:51 | 27.12988 | 89.52570 | 20474 ft | 288 kts | 177° |
| 2026-04-26 11:52 | 27.10925 | 89.52806 | 20555 ft | 308 kts | 176° |
| 2026-04-26 11:52 | 27.08719 | 89.53060 | 20681 ft | 330 kts | 176° |
| 2026-04-26 11:52 | 27.06362 | 89.53332 | 20788 ft | 352 kts | 176° |
| 2026-04-26 11:52 | 27.03854 | 89.53622 | 20912 ft | 372 kts | 176° |
| 2026-04-26 11:53 | 27.01213 | 89.53956 | 21095 ft | 390 kts | 173° |
| 2026-04-26 11:53 | 26.98558 | 89.54766 | 21525 ft | 401 kts | 161° |
| 2026-04-26 11:53 | 26.96082 | 89.56162 | 22083 ft | 408 kts | 149° |
| 2026-04-26 11:54 | 26.91858 | 89.60506 | 23260 ft | 418 kts | 134° |
| 2026-04-26 11:54 | 26.89874 | 89.62909 | 23790 ft | 422 kts | 134° |
| 2026-04-26 11:54 | 26.87850 | 89.65299 | 24282 ft | 425 kts | 138° |
| 2026-04-26 11:54 | 26.85531 | 89.67371 | 24721 ft | 427 kts | 148° |
| 2026-04-26 11:55 | 26.82940 | 89.69017 | 25173 ft | 429 kts | 154° |
| 2026-04-26 11:55 | 26.80279 | 89.70574 | 25639 ft | 433 kts | 156° |
| 2026-04-26 11:55 | 26.77458 | 89.71741 | 26096 ft | 433 kts | 168° |
| 2026-04-26 11:55 | 26.74492 | 89.72241 | 26539 ft | 432 kts | 180° |
| 2026-04-26 11:56 | 26.71501 | 89.72046 | 26997 ft | 430 kts | 193° |
| 2026-04-26 11:56 | 26.68626 | 89.71166 | 27428 ft | 429 kts | 205° |
| 2026-04-26 11:56 | 26.65967 | 89.69645 | 27879 ft | 429 kts | 215° |
| 2026-04-26 11:56 | 26.63425 | 89.67884 | 28331 ft | 432 kts | 215° |
| 2026-04-26 11:57 | 26.60860 | 89.66119 | 28758 ft | 435 kts | 214° |
| 2026-04-26 11:57 | 26.58265 | 89.64346 | 29209 ft | 438 kts | 214° |
| 2026-04-26 11:57 | 26.55685 | 89.62588 | 29627 ft | 441 kts | 215° |
| 2026-04-26 11:57 | 26.53062 | 89.60806 | 30119 ft | 441 kts | 215° |
| 2026-04-26 11:58 | 26.50431 | 89.59025 | 30523 ft | 443 kts | 215° |
| 2026-04-26 11:58 | 26.47792 | 89.57236 | 30730 ft | 445 kts | 215° |
| 2026-04-26 11:58 | 26.45173 | 89.55457 | 30780 ft | 434 kts | 215° |
| 2026-04-26 11:58 | 26.42642 | 89.53739 | 30784 ft | 417 kts | 215° |
| 2026-04-26 11:59 | 26.40194 | 89.52074 | 30783 ft | 409 kts | 216° |
| 2026-04-26 11:59 | 26.35366 | 89.48778 | 30783 ft | 405 kts | 216° |
| 2026-04-26 12:00 | 26.30879 | 89.45076 | 30782 ft | 400 kts | 225° |
| 2026-04-26 12:00 | 26.26662 | 89.41032 | 30784 ft | 400 kts | 225° |
| 2026-04-26 12:01 | 26.22435 | 89.37010 | 30783 ft | 400 kts | 224° |
| 2026-04-26 12:01 | 26.18203 | 89.32990 | 30784 ft | 400 kts | 224° |
| 2026-04-26 12:02 | 26.13970 | 89.28962 | 30785 ft | 400 kts | 224° |
| 2026-04-26 12:02 | 26.09746 | 89.24954 | 30779 ft | 399 kts | 224° |
| 2026-04-26 12:03 | 26.05568 | 89.20898 | 30783 ft | 398 kts | 225° |
| 2026-04-26 12:03 | 26.01481 | 89.16794 | 30790 ft | 397 kts | 225° |
| 2026-04-26 12:04 | 25.97449 | 89.12666 | 30782 ft | 396 kts | 226° |
| 2026-04-26 12:04 | 25.93429 | 89.08473 | 30770 ft | 396 kts | 226° |
| 2026-04-26 12:05 | 25.89411 | 89.04296 | 30774 ft | 396 kts | 226° |
| 2026-04-26 12:05 | 25.85369 | 89.00132 | 30769 ft | 396 kts | 226° |
| 2026-04-26 12:06 | 25.81319 | 88.95991 | 30768 ft | 396 kts | 223° |
| 2026-04-26 12:06 | 25.78993 | 88.94312 | 30772 ft | 403 kts | 208° |
| 2026-04-26 12:06 | 25.76314 | 88.93339 | 30770 ft | 410 kts | 194° |
| 2026-04-26 12:06 | 25.73449 | 88.93169 | 30764 ft | 417 kts | 178° |
| 2026-04-26 12:07 | 25.70596 | 88.93872 | 30760 ft | 425 kts | 162° |
| 2026-04-26 12:07 | 25.65177 | 88.96538 | 30754 ft | 427 kts | 159° |
| 2026-04-26 12:08 | 25.59751 | 88.99253 | 30736 ft | 428 kts | 159° |
| 2026-04-26 12:08 | 25.54312 | 89.01971 | 30740 ft | 429 kts | 159° |
| 2026-04-26 12:09 | 25.48860 | 89.04673 | 30739 ft | 430 kts | 160° |
| 2026-04-26 12:09 | 25.43430 | 89.07358 | 30738 ft | 430 kts | 160° |
| 2026-04-26 12:10 | 25.37968 | 89.10068 | 30743 ft | 430 kts | 159° |
| 2026-04-26 12:10 | 25.32509 | 89.12778 | 30744 ft | 430 kts | 160° |
| 2026-04-26 12:11 | 25.27040 | 89.15480 | 30741 ft | 430 kts | 160° |
| 2026-04-26 12:11 | 25.21578 | 89.18176 | 30735 ft | 430 kts | 160° |
| 2026-04-26 12:12 | 25.16115 | 89.20872 | 30742 ft | 430 kts | 160° |
| 2026-04-26 12:12 | 25.10652 | 89.23565 | 30742 ft | 430 kts | 160° |
| 2026-04-26 12:13 | 25.05221 | 89.26241 | 30618 ft | 432 kts | 159° |
| 2026-04-26 12:13 | 25.02469 | 89.27597 | 30011 ft | 434 kts | 159° |
| 2026-04-26 12:13 | 24.99680 | 89.28969 | 29395 ft | 433 kts | 159° |
| 2026-04-26 12:13 | 24.96935 | 89.30319 | 28883 ft | 431 kts | 159° |
| 2026-04-26 12:14 | 24.94197 | 89.31662 | 28348 ft | 430 kts | 160° |
| 2026-04-26 12:14 | 24.91472 | 89.32998 | 27853 ft | 428 kts | 160° |
| 2026-04-26 12:14 | 24.88764 | 89.34326 | 27353 ft | 426 kts | 160° |
| 2026-04-26 12:14 | 24.86062 | 89.35650 | 26900 ft | 424 kts | 160° |
| 2026-04-26 12:15 | 24.83408 | 89.36950 | 26440 ft | 422 kts | 160° |
| 2026-04-26 12:15 | 24.80689 | 89.38282 | 25981 ft | 422 kts | 160° |
| 2026-04-26 12:15 | 24.78044 | 89.39576 | 25531 ft | 422 kts | 160° |
| 2026-04-26 12:15 | 24.75362 | 89.40888 | 25051 ft | 422 kts | 160° |
| 2026-04-26 12:16 | 24.72679 | 89.42205 | 24575 ft | 421 kts | 160° |
| 2026-04-26 12:16 | 24.70002 | 89.43519 | 24071 ft | 421 kts | 160° |
| 2026-04-26 12:16 | 24.67322 | 89.44831 | 23582 ft | 422 kts | 160° |
| 2026-04-26 12:16 | 24.64640 | 89.46142 | 23019 ft | 423 kts | 160° |
| 2026-04-26 12:17 | 24.61950 | 89.47460 | 22491 ft | 422 kts | 160° |
| 2026-04-26 12:17 | 24.59275 | 89.48769 | 21978 ft | 420 kts | 160° |
| 2026-04-26 12:17 | 24.56603 | 89.50076 | 21474 ft | 419 kts | 160° |
| 2026-04-26 12:17 | 24.53943 | 89.51373 | 20969 ft | 418 kts | 160° |
| 2026-04-26 12:18 | 24.51281 | 89.52670 | 20459 ft | 418 kts | 160° |
| 2026-04-26 12:18 | 24.48629 | 89.53963 | 19962 ft | 417 kts | 160° |
| 2026-04-26 12:18 | 24.45981 | 89.55254 | 19474 ft | 416 kts | 160° |
| 2026-04-26 12:18 | 24.43347 | 89.56540 | 19030 ft | 414 kts | 160° |
| 2026-04-26 12:19 | 24.40723 | 89.57820 | 18663 ft | 410 kts | 160° |
| 2026-04-26 12:19 | 24.38127 | 89.59086 | 18210 ft | 407 kts | 160° |
| 2026-04-26 12:19 | 24.35565 | 89.60398 | 17752 ft | 407 kts | 154° |
| 2026-04-26 12:19 | 24.33264 | 89.62194 | 17166 ft | 407 kts | 140° |
| 2026-04-26 12:20 | 24.31413 | 89.64486 | 16599 ft | 409 kts | 126° |
| 2026-04-26 12:20 | 24.29820 | 89.67038 | 16277 ft | 402 kts | 125° |
| 2026-04-26 12:20 | 24.28238 | 89.69551 | 15689 ft | 399 kts | 125° |
| 2026-04-26 12:20 | 24.27171 | 89.71235 | 15341 ft | 397 kts | 126° |
| 2026-04-26 12:21 | 24.25625 | 89.73666 | 14848 ft | 392 kts | 126° |
| 2026-04-26 12:21 | 24.24071 | 89.76106 | 14387 ft | 387 kts | 126° |
| 2026-04-26 12:21 | 24.22539 | 89.78506 | 13928 ft | 383 kts | 126° |
| 2026-04-26 12:21 | 24.21019 | 89.80892 | 13551 ft | 379 kts | 126° |
| 2026-04-26 12:22 | 24.19531 | 89.83233 | 13302 ft | 366 kts | 126° |
| 2026-04-26 12:22 | 24.18072 | 89.85461 | 13127 ft | 354 kts | 127° |
| 2026-04-26 12:22 | 24.16617 | 89.87610 | 12725 ft | 350 kts | 128° |
| 2026-04-26 12:22 | 24.15395 | 89.89896 | 12296 ft | 347 kts | 112° |
| 2026-04-26 12:23 | 24.14757 | 89.92423 | 11876 ft | 342 kts | 95° |
| 2026-04-26 12:23 | 24.14743 | 89.94984 | 11599 ft | 331 kts | 82° |
| 2026-04-26 12:23 | 24.14935 | 89.97443 | 11472 ft | 318 kts | 82° |
| 2026-04-26 12:23 | 24.15106 | 89.99823 | 11355 ft | 308 kts | 83° |
| 2026-04-26 12:24 | 24.15272 | 90.02158 | 10675 ft | 319 kts | 83° |
| 2026-04-26 12:24 | 24.15450 | 90.04635 | 9863 ft | 332 kts | 83° |
| 2026-04-26 12:24 | 24.15633 | 90.07195 | 8983 ft | 342 kts | 84° |
| 2026-04-26 12:25 | 24.16012 | 90.12504 | 7235 ft | 354 kts | 86° |
| 2026-04-26 12:25 | 24.16154 | 90.15159 | 6889 ft | 340 kts | 93° |
| 2026-04-26 12:25 | 24.15695 | 90.17581 | 6896 ft | 312 kts | 114° |
| 2026-04-26 12:25 | 24.14654 | 90.19531 | 6905 ft | 284 kts | 133° |
| 2026-04-26 12:26 | 24.13252 | 90.20936 | 6916 ft | 268 kts | 149° |
| 2026-04-26 12:26 | 24.11650 | 90.21878 | 6905 ft | 255 kts | 163° |
| 2026-04-26 12:26 | 24.09995 | 90.22389 | 6909 ft | 240 kts | 174° |
| 2026-04-26 12:26 | 24.08362 | 90.22529 | 6911 ft | 233 kts | 185° |
| 2026-04-26 12:27 | 24.06774 | 90.22342 | 6901 ft | 227 kts | 195° |
| 2026-04-26 12:27 | 24.05271 | 90.21850 | 6904 ft | 226 kts | 205° |
| 2026-04-26 12:27 | 24.03874 | 90.21071 | 6909 ft | 225 kts | 214° |
| 2026-04-26 12:27 | 24.02628 | 90.20026 | 6915 ft | 225 kts | 224° |
| 2026-04-26 12:28 | 24.01582 | 90.18757 | 6912 ft | 225 kts | 234° |
| 2026-04-26 12:28 | 24.00782 | 90.17328 | 6905 ft | 223 kts | 244° |
| 2026-04-26 12:28 | 24.00224 | 90.15751 | 6909 ft | 224 kts | 254° |
| 2026-04-26 12:28 | 23.99931 | 90.14076 | 6905 ft | 225 kts | 263° |
| 2026-04-26 12:29 | 23.99920 | 90.12367 | 6910 ft | 225 kts | 274° |
| 2026-04-26 12:29 | 24.00488 | 90.10772 | 6906 ft | 232 kts | 306° |
| 2026-04-26 12:29 | 24.03451 | 90.09547 | 6496 ft | 245 kts | 5° |
| 2026-04-26 12:30 | 24.05136 | 90.09906 | 6154 ft | 249 kts | 14° |
| 2026-04-26 12:30 | 24.06792 | 90.10482 | 5852 ft | 248 kts | 17° |
| 2026-04-26 12:30 | 24.08431 | 90.11085 | 5750 ft | 250 kts | 17° |
| 2026-04-26 12:31 | 24.11572 | 90.12665 | 5503 ft | 250 kts | 45° |
| 2026-04-26 12:31 | 24.12475 | 90.14253 | 5374 ft | 246 kts | 77° |
| 2026-04-26 12:31 | 24.12564 | 90.16071 | 5262 ft | 238 kts | 106° |
| 2026-04-26 12:31 | 24.11886 | 90.17672 | 5154 ft | 229 kts | 134° |
| 2026-04-26 12:32 | 24.10708 | 90.18785 | 5043 ft | 224 kts | 148° |
| 2026-04-26 12:32 | 24.09446 | 90.19787 | 4921 ft | 224 kts | 148° |
| 2026-04-26 12:32 | 24.06952 | 90.21776 | 4675 ft | 220 kts | 148° |
| 2026-04-26 12:33 | 24.05719 | 90.22759 | 4573 ft | 218 kts | 147° |
| 2026-04-26 12:33 | 24.04488 | 90.23740 | 4394 ft | 219 kts | 147° |
| 2026-04-26 12:33 | 24.03251 | 90.24727 | 4119 ft | 220 kts | 147° |
| 2026-04-26 12:33 | 24.02019 | 90.25708 | 3846 ft | 219 kts | 147° |
| 2026-04-26 12:34 | 24.00792 | 90.26686 | 3574 ft | 218 kts | 146° |
| 2026-04-26 12:34 | 23.99570 | 90.27660 | 3297 ft | 216 kts | 146° |
| 2026-04-26 12:34 | 23.98365 | 90.28620 | 3025 ft | 210 kts | 146° |
| 2026-04-26 12:34 | 23.97217 | 90.29535 | 2763 ft | 199 kts | 145° |
| 2026-04-26 12:35 | 23.96147 | 90.30386 | 2511 ft | 187 kts | 145° |
| 2026-04-26 12:35 | 23.95114 | 90.31208 | 2296 ft | 180 kts | 144° |
| 2026-04-26 12:35 | 23.94116 | 90.32002 | 2078 ft | 171 kts | 143° |
| 2026-04-26 12:35 | 23.93175 | 90.32750 | 1874 ft | 166 kts | 142° |
| 2026-04-26 12:36 | 23.92258 | 90.33480 | 1662 ft | 162 kts | 142° |
| 2026-04-26 12:36 | 23.91356 | 90.34197 | 1441 ft | 158 kts | 143° |
| 2026-04-26 12:36 | 23.90478 | 90.34896 | 1205 ft | 153 kts | 143° |
| 2026-04-26 12:36 | 23.89646 | 90.35557 | 1019 ft | 145 kts | 142° |
| 2026-04-26 12:37 | 23.88838 | 90.36199 | 846 ft | 143 kts | 143° |
| 2026-04-26 12:37 | 23.88038 | 90.36835 | 660 ft | 139 kts | 142° |
| 2026-04-26 12:37 | 23.87281 | 90.37437 | 478 ft | 131 kts | 140° |
| 2026-04-26 12:37 | 23.86547 | 90.38019 | 327 ft | 128 kts | 142° |
| 2026-04-26 12:38 | 23.85840 | 90.38581 | 166 ft | 124 kts | 141° |
| 2026-04-26 12:38 | 23.85168 | 90.39120 | 37 ft | 114 kts | 141° |
| 2026-04-26 12:38 | 23.84633 | 90.39547 | 37 ft | 70 kts | 143° |
| 2026-04-26 12:38 | 23.84351 | 90.39768 | 34 ft | 42 kts | 144° |
| 2026-04-26 12:39 | 23.84123 | 90.39952 | 36 ft | 37 kts | 134° |
| 2026-04-26 12:39 | 23.84011 | 90.40183 | 37 ft | 33 kts | 108° |
| 2026-04-26 12:39 | 23.84008 | 90.40378 | 36 ft | 19 kts | 71° |
| 2026-04-26 12:39 | 23.84079 | 90.40505 | 36 ft | 21 kts | 53° |
| 2026-04-26 12:40 | 23.84155 | 90.40576 | 36 ft | 13 kts | 2° |
| 2026-04-26 12:40 | 23.84239 | 90.40524 | 36 ft | 15 kts | 323° |
| 2026-04-26 12:40 | 23.84331 | 90.40449 | 36 ft | 18 kts | 323° |
| 2026-04-26 12:40 | 23.84437 | 90.40364 | 36 ft | 20 kts | 324° |
| 2026-04-26 12:41 | 23.84551 | 90.40276 | 36 ft | 17 kts | 326° |
| 2026-04-26 12:41 | 23.84631 | 90.40239 | 36 ft | 13 kts | 13° |
| 2026-04-26 12:41 | 23.84692 | 90.40317 | 35 ft | 14 kts | 72° |
| 2026-04-26 12:41 | 23.84636 | 90.40396 | 36 ft | 15 kts | 147° |
| 2026-04-26 12:42 | 23.84555 | 90.40459 | 36 ft | 11 kts | 143° |
| 2026-04-26 12:42 | 23.84555 | 90.40527 | 35 ft | 11 kts | 53° |
| 2026-04-26 12:42 | 23.84575 | 90.40557 | 36 ft | 3 kts | 53° |
| 2026-04-26 12:42 | 23.84580 | 90.40564 | 36 ft | 0 kts | 54° |